createdAt,value
2022-12-11T00:00:05.707Z,94.25
2022-12-11T00:02:32.215Z,79.22
2022-12-11T00:04:58.646Z,88.32
2022-12-11T00:07:25.126Z,88.90
2022-12-11T00:09:51.470Z,87.93
2022-12-11T00:12:17.886Z,90.45
2022-12-11T00:14:44.249Z,83.35
2022-12-11T00:17:10.719Z,91.28
2022-12-11T00:19:37.098Z,93.00
2022-12-11T00:22:03.528Z,86.97
2022-12-11T00:24:29.951Z,74.97
2022-12-11T00:26:56.506Z,81.90
2022-12-11T00:29:22.922Z,72.97
2022-12-11T00:31:49.321Z,73.32
2022-12-11T00:34:15.790Z,75.75
2022-12-11T00:36:42.238Z,70.78
2022-12-11T00:39:08.649Z,64.80
2022-12-11T00:41:35.106Z,72.13
2022-12-11T00:44:02.257Z,64.85
2022-12-11T00:46:28.677Z,64.15
2022-12-11T00:48:55.234Z,68.03
2022-12-11T00:51:21.841Z,62.70
2022-12-11T00:53:48.398Z,62.05
2022-12-11T00:56:18.442Z,61.50
2022-12-11T00:58:46.015Z,56.58
2022-12-11T01:01:19.333Z,58.13
2022-12-11T01:03:46.417Z,67.43
2022-12-11T01:06:18.594Z,62.78
2022-12-11T01:08:45.835Z,63.40
2022-12-11T01:11:14.843Z,71.05
2022-12-11T01:13:41.798Z,64.93
2022-12-11T01:16:10.782Z,76.47
2022-12-11T01:18:37.470Z,72.10
2022-12-11T01:21:12.241Z,67.22
2022-12-11T01:23:39.602Z,50.27
2022-12-11T01:26:11.357Z,66.70
2022-12-11T01:28:37.813Z,69.82
2022-12-11T01:31:11.456Z,66.30
2022-12-11T01:33:38.878Z,64.35
2022-12-11T01:36:14.515Z,72.93
2022-12-11T01:41:08.399Z,56.92
2022-12-11T01:43:35.554Z,68.00
2022-12-11T01:46:02.053Z,66.15
2022-12-11T01:48:30.988Z,63.28
2022-12-11T01:51:04.920Z,67.68
2022-12-11T01:53:35.000Z,67.13
2022-12-11T01:56:02.981Z,69.78
2022-12-11T01:58:32.917Z,71.57
2022-12-11T02:01:01.193Z,69.03
2022-12-11T02:03:27.692Z,61.53
2022-12-11T02:05:54.167Z,56.60
2022-12-11T02:08:21.216Z,60.00
2022-12-11T02:10:56.847Z,61.40
2022-12-11T02:13:34.842Z,57.63
2022-12-11T02:16:16.916Z,52.55
2022-12-11T02:18:54.360Z,51.83
2022-12-11T02:21:26.612Z,51.15
2022-12-11T02:24:30.629Z,53.33
2022-12-11T02:27:09.157Z,46.92
2022-12-11T02:29:39.487Z,45.47
2022-12-11T02:32:45.537Z,48.28
2022-12-11T02:35:33.403Z,49.30
2022-12-11T02:38:22.646Z,48.45
2022-12-11T02:40:52.447Z,40.00
2022-12-11T02:43:20.145Z,47.85
2022-12-11T02:45:48.561Z,48.65
2022-12-11T02:48:16.982Z,49.13
2022-12-11T02:50:48.937Z,49.60
2022-12-11T02:53:20.406Z,50.72
2022-12-11T02:55:50.823Z,47.53
2022-12-11T02:58:22.185Z,45.63
2022-12-11T03:00:48.727Z,40.88
2022-12-11T03:03:15.354Z,51.05
2022-12-11T03:05:42.657Z,42.58
2022-12-11T03:08:09.437Z,42.53
2022-12-11T03:10:35.809Z,47.42
2022-12-11T03:13:03.169Z,47.72
2022-12-11T03:15:41.447Z,41.95
2022-12-11T03:18:26.329Z,42.58
2022-12-11T03:21:21.466Z,48.13
2022-12-11T03:24:02.895Z,40.88
2022-12-11T03:26:32.896Z,35.00
2022-12-11T03:29:04.681Z,37.05
2022-12-11T03:31:40.049Z,43.50
2022-12-11T03:34:14.177Z,36.28
2022-12-11T03:36:43.856Z,40.92
2022-12-11T03:39:18.792Z,42.80
2022-12-11T03:41:48.492Z,37.55
2022-12-11T03:44:16.577Z,37.75
2022-12-11T03:46:45.530Z,35.03
2022-12-11T03:49:24.502Z,32.22
2022-12-11T03:51:54.398Z,35.90
2022-12-11T03:54:21.273Z,36.60
2022-12-11T03:56:50.952Z,36.50
2022-12-11T03:59:17.514Z,33.65
2022-12-11T04:01:43.954Z,33.35
2022-12-11T04:04:10.381Z,32.72
2022-12-11T04:06:36.921Z,35.80
2022-12-11T04:09:03.422Z,32.30
2022-12-11T04:11:35.721Z,31.92
2022-12-11T04:14:21.856Z,35.67
2022-12-11T04:19:33.727Z,28.27
2022-12-11T04:22:20.238Z,37.60
2022-12-11T04:24:50.266Z,32.63
2022-12-11T04:27:38.270Z,28.20
2022-12-11T04:30:07.186Z,32.05
2022-12-11T04:32:33.648Z,34.17
2022-12-11T04:35:00.153Z,33.05
2022-12-11T04:37:27.698Z,29.98
2022-12-11T04:39:54.247Z,29.77
2022-12-11T04:42:20.567Z,32.75
2022-12-11T04:44:47.118Z,30.30
2022-12-11T04:47:13.541Z,32.03
2022-12-11T04:49:39.971Z,30.42
2022-12-11T04:52:06.443Z,31.83
2022-12-11T04:54:32.906Z,34.53
2022-12-11T04:56:59.274Z,33.40
2022-12-11T04:59:25.762Z,30.88
2022-12-11T05:01:52.344Z,32.40
2022-12-11T05:04:18.883Z,29.17
2022-12-11T05:06:45.238Z,27.42
2022-12-11T05:09:13.133Z,29.98
2022-12-11T05:11:39.473Z,29.23
2022-12-11T05:14:05.973Z,29.67
2022-12-11T05:16:32.483Z,32.78
2022-12-11T05:18:58.878Z,27.35
2022-12-11T05:21:27.964Z,29.52
2022-12-11T05:23:56.720Z,32.25
2022-12-11T05:26:23.067Z,32.00
2022-12-11T05:28:54.204Z,28.30
2022-12-11T05:31:23.920Z,25.13
2022-12-11T05:33:50.933Z,31.73
2022-12-11T05:36:23.346Z,28.27
2022-12-11T05:38:50.880Z,28.05
2022-12-11T05:41:20.484Z,26.30
2022-12-11T05:43:47.138Z,28.45
2022-12-11T05:46:25.619Z,26.45
2022-12-11T05:48:55.477Z,27.50
2022-12-11T05:51:21.942Z,32.05
2022-12-11T05:53:50.242Z,29.38
2022-12-11T05:56:20.222Z,26.60
2022-12-11T05:58:47.751Z,24.88
2022-12-11T06:01:23.726Z,28.70
2022-12-11T06:03:50.273Z,31.73
2022-12-11T06:06:17.109Z,32.08
2022-12-11T06:08:43.690Z,30.83
2022-12-11T06:11:13.458Z,31.17
2022-12-11T06:13:39.868Z,31.13
2022-12-11T06:16:07.826Z,31.13
2022-12-11T06:18:39.304Z,25.73
2022-12-11T06:21:16.692Z,30.33
2022-12-11T06:23:44.439Z,29.42
2022-12-11T06:26:12.271Z,27.83
2022-12-11T06:28:39.540Z,32.10
2022-12-11T06:31:06.663Z,28.85
2022-12-11T06:33:33.906Z,30.23
2022-12-11T06:36:05.739Z,32.00
2022-12-11T06:38:32.286Z,28.05
2022-12-11T06:41:00.983Z,32.40
2022-12-11T06:43:27.768Z,31.35
2022-12-11T06:45:57.918Z,31.58
2022-12-11T06:48:27.334Z,33.08
2022-12-11T06:50:54.085Z,29.00
2022-12-11T06:53:20.749Z,34.58
2022-12-11T06:55:47.623Z,33.97
2022-12-11T06:58:14.318Z,31.25
2022-12-11T07:00:41.146Z,34.20
2022-12-11T07:03:08.107Z,28.30
2022-12-11T07:05:34.805Z,35.70
2022-12-11T07:08:01.715Z,33.58
2022-12-11T07:10:28.451Z,29.83
2022-12-11T07:12:55.474Z,29.10
2022-12-11T07:15:23.630Z,28.00
2022-12-11T07:17:50.460Z,26.83
2022-12-11T07:20:17.410Z,30.30
2022-12-11T07:22:46.696Z,30.05
2022-12-11T07:25:14.295Z,30.30
2022-12-11T07:28:18.939Z,26.73
2022-12-11T07:34:55.187Z,27.83
2022-12-11T07:37:21.603Z,29.25
2022-12-11T07:39:48.984Z,31.25
2022-12-11T07:42:15.339Z,27.15
2022-12-11T07:44:41.669Z,38.05
2022-12-11T07:47:07.964Z,32.88
2022-12-11T07:49:34.278Z,29.80
2022-12-11T07:52:00.609Z,31.65
2022-12-11T07:54:26.937Z,34.42
2022-12-11T07:56:54.109Z,31.17
2022-12-11T07:59:21.103Z,33.90
2022-12-11T08:01:47.617Z,33.58
2022-12-11T08:04:15.627Z,34.53
2022-12-11T08:06:42.751Z,33.28
2022-12-11T08:09:18.939Z,31.55
2022-12-11T08:11:49.314Z,29.42
2022-12-11T08:14:15.649Z,33.45
2022-12-11T08:16:43.975Z,34.97
2022-12-11T08:19:13.801Z,31.52
2022-12-11T08:21:40.299Z,34.75
2022-12-11T08:24:06.944Z,29.25
2022-12-11T08:26:33.403Z,30.50
2022-12-11T08:29:01.488Z,28.70
2022-12-11T08:31:28.620Z,27.85
2022-12-11T08:33:56.578Z,30.42
2022-12-11T08:36:23.821Z,28.73
2022-12-11T08:38:51.296Z,27.92
2022-12-11T08:41:22.285Z,25.67
2022-12-11T08:43:48.658Z,29.65
2022-12-11T08:46:15.931Z,28.38
2022-12-11T08:48:43.337Z,30.88
2022-12-11T08:51:14.742Z,25.73
2022-12-11T08:53:41.270Z,27.45
2022-12-11T08:56:11.382Z,24.15
2022-12-11T08:58:38.277Z,26.95
2022-12-11T09:01:10.076Z,29.88
2022-12-11T09:03:37.722Z,23.48
2022-12-11T09:06:09.089Z,27.50
2022-12-11T09:08:36.065Z,25.02
2022-12-11T09:11:08.688Z,25.98
2022-12-11T09:13:35.814Z,24.27
2022-12-11T09:16:07.999Z,23.60
2022-12-11T09:18:34.588Z,27.02
2022-12-11T09:21:06.006Z,27.90
2022-12-11T09:23:35.345Z,24.88
2022-12-11T09:26:12.595Z,27.85
2022-12-11T09:28:45.784Z,24.48
2022-12-11T09:31:20.173Z,22.27
2022-12-11T09:33:46.730Z,24.98
2022-12-11T09:36:13.134Z,26.60
2022-12-11T09:38:39.702Z,28.23
2022-12-11T09:41:20.965Z,24.95
2022-12-11T09:43:47.352Z,25.92
2022-12-11T09:46:15.970Z,27.17
2022-12-11T09:48:46.168Z,21.90
2022-12-11T09:51:39.895Z,21.38
2022-12-11T09:54:06.416Z,23.17
2022-12-11T09:56:39.206Z,21.85
2022-12-11T09:59:25.292Z,22.02
2022-12-11T10:02:02.601Z,24.02
2022-12-11T10:04:32.029Z,21.02
2022-12-11T10:07:20.922Z,19.30
2022-12-11T10:10:07.612Z,20.17
2022-12-11T10:13:09.453Z,19.42
2022-12-11T10:15:43.811Z,21.83
2022-12-11T10:18:14.964Z,18.98
2022-12-11T10:20:42.802Z,21.02
2022-12-11T10:23:17.240Z,20.92
2022-12-11T10:25:51.104Z,20.58
2022-12-11T10:28:20.150Z,17.38
2022-12-11T10:31:06.593Z,15.57
2022-12-11T10:33:40.893Z,17.55
2022-12-11T10:36:09.066Z,14.52
2022-12-11T10:38:44.923Z,15.57
2022-12-11T10:41:13.995Z,16.90
2022-12-11T10:43:43.284Z,18.13
2022-12-11T10:46:25.879Z,18.70
2022-12-11T10:48:54.551Z,15.07
2022-12-11T10:51:24.110Z,17.50
2022-12-11T10:53:53.623Z,15.75
2022-12-11T10:56:28.531Z,17.35
2022-12-11T10:58:57.674Z,16.40
2022-12-11T11:01:26.871Z,16.52
2022-12-11T11:04:19.049Z,17.40
2022-12-11T11:06:45.429Z,18.10
2022-12-11T11:09:29.776Z,18.08
2022-12-11T11:11:56.126Z,17.63
2022-12-11T11:14:25.326Z,16.42
2022-12-11T11:16:57.309Z,18.52
2022-12-11T11:19:35.885Z,20.23
2022-12-11T11:22:06.986Z,20.50
2022-12-11T11:24:38.514Z,18.25
2022-12-11T11:27:15.023Z,16.83
2022-12-11T11:29:42.445Z,15.68
2022-12-11T11:32:24.554Z,15.45
2022-12-11T11:34:50.881Z,17.27
2022-12-11T11:37:33.527Z,18.80
2022-12-11T11:40:17.073Z,16.25
2022-12-11T11:43:10.604Z,17.92
2022-12-11T11:45:59.359Z,18.77
2022-12-11T11:48:48.262Z,16.55
2022-12-11T11:51:39.457Z,18.13
2022-12-11T11:54:26.098Z,20.17
2022-12-11T11:56:55.908Z,17.70
2022-12-11T11:59:31.916Z,21.48
2022-12-11T12:01:58.896Z,19.27
2022-12-11T12:04:31.328Z,18.77
2022-12-11T12:07:11.802Z,22.75
2022-12-11T12:10:06.678Z,22.00
2022-12-11T12:13:00.815Z,23.33
2022-12-11T12:15:38.969Z,21.67
2022-12-11T12:18:25.133Z,20.02
2022-12-11T12:23:52.665Z,16.20
2022-12-11T12:26:27.921Z,16.75
2022-12-11T12:29:39.012Z,21.65
2022-12-11T12:32:25.470Z,17.23
2022-12-11T12:35:17.009Z,17.83
2022-12-11T12:37:50.361Z,18.73
2022-12-11T12:40:55.642Z,19.27
2022-12-11T12:43:59.536Z,20.83
2022-12-11T12:47:00.631Z,21.65
2022-12-11T12:49:42.753Z,19.45
2022-12-11T12:52:23.089Z,19.77
2022-12-11T12:55:12.978Z,19.45
2022-12-11T12:57:44.871Z,22.42
2022-12-11T13:00:14.653Z,20.85
2022-12-11T13:02:50.816Z,21.10
2022-12-11T13:05:26.394Z,17.02
2022-12-11T13:07:59.192Z,19.50
2022-12-11T13:10:34.577Z,18.83
2022-12-11T13:13:03.065Z,22.10
2022-12-11T13:15:43.624Z,20.30
2022-12-11T13:18:39.126Z,20.70
2022-12-11T13:21:26.168Z,22.02
2022-12-11T13:23:52.795Z,18.17
2022-12-11T13:26:30.749Z,22.10
2022-12-11T13:28:58.187Z,18.33
2022-12-11T13:31:34.793Z,19.25
2022-12-11T13:34:23.601Z,19.48
2022-12-11T13:36:52.475Z,21.48
2022-12-11T13:39:26.094Z,18.73
2022-12-11T13:41:56.820Z,17.77
2022-12-11T13:44:29.065Z,20.20
2022-12-11T13:46:58.130Z,18.00
2022-12-11T13:49:28.622Z,19.83
2022-12-11T13:51:57.897Z,20.50
2022-12-11T13:54:26.332Z,19.55
2022-12-11T13:56:56.906Z,21.25
2022-12-11T13:59:41.026Z,19.80
2022-12-11T14:02:27.058Z,21.10
2022-12-11T14:04:59.126Z,24.73
2022-12-11T14:07:33.472Z,20.30
2022-12-11T14:10:09.441Z,20.23
2022-12-11T14:12:36.954Z,23.20
2022-12-11T14:15:04.737Z,19.30
2022-12-11T14:17:34.076Z,19.77
2022-12-11T14:20:07.118Z,18.65
2022-12-11T14:22:33.600Z,19.25
2022-12-11T14:25:05.562Z,20.05
2022-12-11T14:27:31.878Z,22.40
2022-12-11T14:29:58.292Z,24.85
2022-12-11T14:32:34.999Z,21.15
2022-12-11T14:35:05.870Z,26.05
2022-12-11T14:37:35.274Z,25.13
2022-12-11T14:40:07.289Z,25.13
2022-12-11T14:42:45.347Z,24.70
2022-12-11T14:45:30.528Z,25.38
2022-12-11T14:47:59.681Z,24.70
2022-12-11T14:50:31.362Z,22.50
2022-12-11T14:53:04.055Z,22.05
2022-12-11T14:55:35.687Z,27.45
2022-12-11T14:58:07.481Z,20.90
2022-12-11T15:00:36.791Z,23.75
2022-12-11T15:03:07.333Z,22.08
2022-12-11T15:05:40.512Z,22.95
2022-12-11T15:08:09.895Z,26.70
2022-12-11T15:10:41.053Z,26.05
2022-12-11T15:13:08.860Z,25.30
2022-12-11T15:15:45.602Z,22.20
2022-12-11T15:18:29.708Z,26.63
2022-12-11T15:20:59.899Z,23.00
2022-12-11T15:23:27.330Z,24.33
2022-12-11T15:25:56.647Z,22.67
2022-12-11T15:28:34.369Z,24.58
2022-12-11T15:31:04.838Z,24.75
2022-12-11T15:33:34.545Z,24.15
2022-12-11T15:36:06.114Z,22.83
2022-12-11T15:38:41.928Z,20.90
2022-12-11T15:41:17.421Z,23.52
2022-12-11T15:43:45.000Z,24.63
2022-12-11T15:46:11.332Z,20.65
2022-12-11T15:48:37.670Z,23.10
2022-12-11T15:51:04.210Z,24.27
2022-12-11T15:53:30.627Z,22.63
2022-12-11T15:55:57.785Z,27.13
2022-12-11T15:58:25.752Z,22.98
2022-12-11T16:00:53.242Z,22.75
2022-12-11T16:03:21.304Z,23.50
2022-12-11T16:05:49.422Z,24.27
2022-12-11T16:08:18.883Z,24.90
2022-12-11T16:10:45.865Z,23.45
2022-12-11T16:13:13.029Z,24.77
2022-12-11T16:15:42.011Z,27.30
2022-12-11T16:18:10.880Z,26.23
2022-12-11T16:20:39.416Z,24.92
2022-12-11T16:23:06.121Z,28.67
2022-12-11T16:25:32.948Z,25.77
2022-12-11T16:28:01.422Z,26.45
2022-12-11T16:30:29.282Z,30.10
2022-12-11T16:32:55.992Z,26.52
2022-12-11T16:35:22.521Z,28.60
2022-12-11T16:37:50.639Z,26.95
2022-12-11T16:40:17.985Z,27.42
2022-12-11T16:42:44.750Z,28.40
2022-12-11T16:45:14.814Z,26.63
2022-12-11T16:47:41.764Z,27.40
2022-12-11T16:50:08.934Z,28.08
2022-12-11T16:52:35.370Z,28.63
2022-12-11T16:55:01.846Z,25.20
2022-12-11T16:57:28.146Z,26.25
2022-12-11T16:59:54.469Z,27.40
2022-12-11T17:02:20.944Z,27.55
2022-12-11T17:04:53.705Z,27.45
2022-12-11T17:07:20.444Z,29.05
2022-12-11T17:09:46.937Z,29.48
2022-12-11T17:12:13.250Z,27.55
2022-12-11T17:14:39.637Z,26.67
2022-12-11T17:17:06.050Z,29.85
2022-12-11T17:19:32.345Z,24.17
2022-12-11T17:21:58.942Z,24.48
2022-12-11T17:24:25.372Z,23.95
2022-12-11T17:26:52.165Z,28.20
2022-12-11T17:29:18.573Z,27.58
2022-12-11T17:31:45.099Z,26.30
2022-12-11T17:34:11.458Z,27.52
2022-12-11T17:36:37.833Z,32.30
2022-12-11T17:39:04.199Z,30.83
2022-12-11T17:41:30.641Z,32.05
2022-12-11T17:43:57.034Z,27.52
2022-12-11T17:46:23.699Z,33.95
2022-12-11T17:48:50.128Z,29.17
2022-12-11T17:51:23.777Z,28.80
2022-12-11T17:53:51.768Z,31.15
2022-12-11T17:56:18.170Z,27.67
2022-12-11T17:58:44.842Z,29.40
2022-12-11T18:01:13.049Z,28.42
2022-12-11T18:03:40.285Z,26.60
2022-12-11T18:06:13.710Z,30.67
2022-12-11T18:08:41.459Z,28.63
2022-12-11T18:11:16.511Z,28.38
2022-12-11T18:13:44.316Z,29.42
2022-12-11T18:16:13.523Z,29.30
2022-12-11T18:18:40.254Z,30.15
2022-12-11T18:21:07.330Z,28.13
2022-12-11T18:23:34.415Z,24.25
2022-12-11T18:26:01.505Z,30.55
2022-12-11T18:28:30.196Z,28.10
2022-12-11T18:30:59.327Z,28.92
2022-12-11T18:33:25.728Z,31.98
2022-12-11T18:35:52.328Z,29.75
2022-12-11T18:38:18.701Z,30.23
2022-12-11T18:40:45.233Z,30.48
2022-12-11T18:43:11.814Z,30.98
2022-12-11T18:45:42.980Z,30.70
2022-12-11T18:48:09.719Z,30.20
2022-12-11T18:50:36.197Z,32.95
2022-12-11T18:53:03.162Z,30.73
2022-12-11T18:55:29.755Z,33.65
2022-12-11T18:57:56.099Z,30.65
2022-12-11T19:00:22.987Z,31.58
2022-12-11T19:02:52.566Z,28.95
2022-12-11T19:05:19.009Z,32.88
2022-12-11T19:07:45.585Z,34.30
2022-12-11T19:10:12.013Z,34.42
2022-12-11T19:12:38.375Z,38.67
2022-12-11T19:15:05.180Z,32.67
2022-12-11T19:17:31.516Z,31.73
2022-12-11T19:22:24.369Z,35.28
2022-12-11T19:24:51.309Z,32.83
2022-12-11T19:27:17.612Z,31.83
2022-12-11T19:29:43.924Z,32.10
2022-12-11T19:32:10.354Z,35.22
2022-12-11T19:34:38.398Z,37.85
2022-12-11T19:37:04.838Z,37.80
2022-12-11T19:39:31.301Z,33.42
2022-12-11T19:41:57.826Z,43.22
2022-12-11T19:44:24.282Z,38.60
2022-12-11T19:46:50.676Z,34.30
2022-12-11T19:49:17.205Z,34.00
2022-12-11T19:51:43.972Z,34.47
2022-12-11T19:54:14.174Z,37.55
2022-12-11T19:56:41.151Z,36.80
2022-12-11T19:59:11.817Z,35.75
2022-12-11T20:01:38.576Z,35.88
2022-12-11T20:04:11.591Z,33.40
2022-12-11T20:06:40.417Z,34.08
2022-12-11T20:09:10.786Z,34.90
2022-12-11T20:11:42.246Z,39.10
2022-12-11T20:14:08.874Z,35.42
2022-12-11T20:17:08.787Z,39.83
2022-12-11T20:19:22.163Z,36.47
2022-12-11T20:21:48.503Z,39.92
2022-12-11T20:24:14.842Z,42.88
2022-12-11T20:26:41.188Z,35.88
2022-12-11T20:29:08.192Z,45.40
2022-12-11T20:31:36.153Z,40.30
2022-12-11T20:34:03.080Z,39.70
2022-12-11T20:36:29.818Z,35.75
2022-12-11T20:38:56.284Z,39.90
2022-12-11T20:41:24.439Z,41.55
2022-12-11T20:43:53.889Z,44.35
2022-12-11T20:46:21.987Z,41.60
2022-12-11T20:48:49.012Z,40.75
2022-12-11T20:51:20.956Z,44.30
2022-12-11T20:53:58.106Z,42.88
2022-12-11T20:56:26.844Z,39.95
2022-12-11T20:58:53.584Z,42.65
2022-12-11T21:01:24.896Z,44.70
2022-12-11T21:03:53.209Z,42.63
2022-12-11T21:06:30.723Z,42.50
2022-12-11T21:08:58.999Z,46.10
2022-12-11T21:11:25.471Z,51.55
2022-12-11T21:13:52.194Z,49.38
2022-12-11T21:16:19.517Z,46.22
2022-12-11T21:18:46.579Z,48.38
2022-12-11T21:21:13.481Z,50.95
2022-12-11T21:23:39.877Z,49.35
2022-12-11T21:26:06.541Z,43.40
2022-12-11T21:28:35.456Z,46.53
2022-12-11T21:31:05.011Z,46.25
2022-12-11T21:33:31.445Z,45.05
2022-12-11T21:35:59.376Z,49.00
2022-12-11T21:38:26.704Z,44.33
2022-12-11T21:40:54.030Z,44.28
2022-12-11T21:43:20.541Z,46.90
2022-12-11T21:46:02.649Z,50.40
2022-12-11T21:48:29.321Z,51.58
2022-12-11T21:50:56.078Z,48.42
2022-12-11T21:53:22.401Z,51.00
2022-12-11T21:55:48.742Z,47.95
2022-12-11T21:58:15.589Z,52.20
2022-12-11T22:00:41.985Z,50.35
2022-12-11T22:03:08.448Z,54.83
2022-12-11T22:05:34.770Z,53.97
2022-12-11T22:08:01.186Z,55.38
2022-12-11T22:10:28.800Z,53.17
2022-12-11T22:12:55.489Z,53.97
2022-12-11T22:15:21.975Z,57.03
2022-12-11T22:17:48.502Z,53.47
2022-12-11T22:20:14.814Z,52.85
2022-12-11T22:22:41.131Z,55.55
2022-12-11T22:25:07.921Z,57.80
2022-12-11T22:27:34.375Z,49.72
2022-12-11T22:30:00.942Z,50.67
2022-12-11T22:32:27.679Z,51.78
2022-12-11T22:34:56.169Z,52.38
2022-12-11T22:37:22.480Z,55.40
2022-12-11T22:39:48.814Z,51.42
2022-12-11T22:42:15.433Z,48.72
2022-12-11T22:44:41.786Z,52.00
2022-12-11T22:47:08.097Z,51.47
2022-12-11T22:49:35.748Z,48.92
2022-12-11T22:52:02.067Z,47.83
2022-12-11T22:54:28.412Z,46.45
2022-12-11T22:56:54.769Z,44.97
2022-12-11T22:59:21.200Z,46.90
2022-12-11T23:01:47.503Z,46.42
2022-12-11T23:04:14.046Z,46.25
2022-12-11T23:06:40.540Z,47.50
2022-12-11T23:09:07.331Z,46.17
2022-12-11T23:11:36.905Z,48.35
2022-12-11T23:14:05.803Z,46.17
2022-12-11T23:16:32.321Z,46.65
2022-12-11T23:18:59.351Z,46.28
2022-12-11T23:21:27.923Z,49.17
2022-12-11T23:23:54.948Z,47.58
2022-12-11T23:26:22.568Z,48.08
2022-12-11T23:28:49.682Z,45.80
2022-12-11T23:31:17.368Z,42.80
2022-12-11T23:33:44.053Z,45.78
2022-12-11T23:36:11.252Z,45.70
2022-12-11T23:38:38.760Z,45.63
2022-12-11T23:41:05.659Z,43.45
2022-12-11T23:43:33.299Z,43.47
2022-12-11T23:45:59.683Z,46.92
2022-12-11T23:48:26.093Z,46.13
2022-12-11T23:50:52.578Z,49.42
2022-12-11T23:53:18.940Z,52.30
2022-12-11T23:55:45.376Z,42.78
2022-12-11T23:58:12.113Z,44.30
